Time;durP1;ratioP1;P1;durP2;ratioP2;P2;SDS_P1;SDS_P2;PMS_P1;PMS_P2;Temp;Humidity;BMP_temperature;BMP_pressure;BME280_temperature;BME280_humidity;BME280_pressure;Samples;Min_cycle;Max_cycle;Signal;HPM_P1;HPM_P2
2022/06/16 00:02:24;;;;;;;10.07;8.85;;;;;;;;;;4985416;28;20464;-72
2022/06/16 00:04:50;;;;;;;10.75;8.90;;;;;;;;;;4989557;28;20390;-70
2022/06/16 00:07:16;;;;;;;9.98;9.07;;;;;;;;;;4991688;28;20034;-73
2022/06/16 00:09:41;;;;;;;11.27;9.57;;;;;;;;;;4986553;28;20076;-74
2022/06/16 00:12:06;;;;;;;10.32;8.55;;;;;;;;;;4982247;28;20022;-74
2022/06/16 00:14:32;;;;;;;10.40;8.70;;;;;;;;;;4990685;28;20053;-72
2022/06/16 00:16:58;;;;;;;9.52;8.27;;;;;;;;;;4991115;28;20030;-73
2022/06/16 00:19:24;;;;;;;8.50;7.80;;;;;;;;;;4985223;28;20065;-74
2022/06/16 00:21:49;;;;;;;9.40;8.43;;;;;;;;;;4984487;28;20101;-72
2022/06/16 00:24:14;;;;;;;11.13;8.25;;;;;;;;;;4990771;28;20026;-72
2022/06/16 00:26:39;;;;;;;11.32;8.45;;;;;;;;;;4990192;28;20392;-73
2022/06/16 00:29:04;;;;;;;11.38;8.77;;;;;;;;;;4984080;28;20049;-73
2022/06/16 00:31:30;;;;;;;10.32;9.43;;;;;;;;;;4984263;28;20022;-73
2022/06/16 00:33:55;;;;;;;11.55;10.13;;;;;;;;;;4990269;28;20093;-72
2022/06/16 00:36:20;;;;;;;9.75;8.88;;;;;;;;;;4989140;28;20129;-71
2022/06/16 00:38:46;;;;;;;10.00;8.73;;;;;;;;;;4982799;28;20027;-71
2022/06/16 00:41:11;;;;;;;9.40;8.48;;;;;;;;;;4985828;28;20032;-73
2022/06/16 00:43:36;;;;;;;14.90;9.98;;;;;;;;;;4989504;28;20054;-72
2022/06/16 00:46:06;;;;;;;9.38;8.57;;;;;;;;;;4987824;28;20119;-72
2022/06/16 00:48:38;;;;;;;10.15;9.15;;;;;;;;;;4982521;28;20440;-73
2022/06/16 00:51:16;;;;;;;11.50;8.95;;;;;;;;;;4987164;28;20022;-72
2022/06/16 00:53:42;;;;;;;9.65;8.65;;;;;;;;;;4990140;28;20023;-73
2022/06/16 00:56:09;;;;;;;11.18;9.27;;;;;;;;;;4986297;28;20027;-74
2022/06/16 00:58:36;;;;;;;10.65;9.55;;;;;;;;;;4983350;28;20505;-71
2022/06/16 01:01:01;;;;;;;9.82;8.88;;;;;;;;;;4987422;28;20464;-71
2022/06/16 01:06:16;;;;;;;10.68;9.73;;;;;;;;;;4982697;28;20109;-73
2022/06/16 01:08:42;;;;;;;10.68;9.55;;;;;;;;;;4987760;28;20157;-71
2022/06/16 01:11:10;;;;;;;11.27;10.07;;;;;;;;;;4991027;28;20106;-73
2022/06/16 01:13:42;;;;;;;10.50;9.48;;;;;;;;;;4985903;28;20022;-72
2022/06/16 01:16:08;;;;;;;11.00;9.77;;;;;;;;;;4982127;28;20091;-72
2022/06/16 01:18:53;;;;;;;11.32;9.50;;;;;;;;;;4988422;28;20032;-71
2022/06/16 01:21:25;;;;;;;12.55;9.05;;;;;;;;;;4990159;28;20126;-70
2022/06/16 01:23:50;;;;;;;9.55;8.75;;;;;;;;;;4985152;28;20076;-74
2022/06/16 01:26:18;;;;;;;11.15;9.48;;;;;;;;;;4982948;28;20118;-72
2022/06/16 01:28:46;;;;;;;10.25;9.27;;;;;;;;;;4990224;28;20026;-73
2022/06/16 01:31:14;;;;;;;11.32;10.13;;;;;;;;;;4992345;28;20022;-73
2022/06/16 01:33:45;;;;;;;10.18;9.35;;;;;;;;;;4982206;28;20041;-73
2022/06/16 01:36:20;;;;;;;10.52;9.63;;;;;;;;;;4985311;28;20077;-73
2022/06/16 01:38:53;;;;;;;10.60;9.70;;;;;;;;;;4989689;28;20559;-73
2022/06/16 01:41:21;;;;;;;10.70;9.70;;;;;;;;;;4987327;28;20310;-73
2022/06/16 01:43:46;;;;;;;11.82;10.45;;;;;;;;;;4982440;28;20054;-73
2022/06/16 01:46:16;;;;;;;12.10;10.65;;;;;;;;;;4984418;28;20050;-73
2022/06/16 01:48:42;;;;;;;10.57;9.68;;;;;;;;;;4988926;28;20046;-72
2022/06/16 01:51:21;;;;;;;10.57;9.65;;;;;;;;;;4986957;28;20461;-71
2022/06/16 01:53:50;;;;;;;9.70;8.85;;;;;;;;;;4989236;28;20029;-71
2022/06/16 01:56:21;;;;;;;10.55;9.55;;;;;;;;;;4987757;28;20029;-71
2022/06/16 01:58:48;;;;;;;9.93;8.93;;;;;;;;;;4988556;28;20023;-71
2022/06/16 02:01:17;;;;;;;10.45;9.48;;;;;;;;;;4984484;28;20034;-71
2022/06/16 02:03:52;;;;;;;10.85;9.77;;;;;;;;;;4981976;28;20033;-70
2022/06/16 02:06:17;;;;;;;;;;;;;;;;;;4988860;28;20034;-71
2022/06/16 02:08:45;;;;;;;10.23;9.35;;;;;;;;;;4989234;28;19968;-70
2022/06/16 02:11:25;;;;;;;10.57;9.55;;;;;;;;;;4982532;28;20050;-72
2022/06/16 02:13:53;;;;;;;10.02;9.13;;;;;;;;;;4984107;28;20454;-63
2022/06/16 02:16:20;;;;;;;11.00;9.95;;;;;;;;;;4987842;28;20623;-67
2022/06/16 02:18:46;;;;;;;12.82;10.73;;;;;;;;;;4986300;28;20035;-71
2022/06/16 02:21:14;;;;;;;12.07;10.90;;;;;;;;;;4981578;28;20026;-73
2022/06/16 02:23:40;;;;;;;12.10;10.88;;;;;;;;;;4984723;28;20125;-72
2022/06/16 02:26:05;;;;;;;11.43;10.32;;;;;;;;;;4987750;28;20385;-72
2022/06/16 02:28:40;;;;;;;10.95;9.95;;;;;;;;;;4985866;28;20026;-73
2022/06/16 02:31:05;;;;;;;;;;;;;;;;;;4982726;28;20026;-73
2022/06/16 02:33:40;;;;;;;10.93;9.90;;;;;;;;;;5001217;28;19916;-73
2022/06/16 02:36:19;;;;;;;10.82;9.75;;;;;;;;;;4988385;28;20040;-73
2022/06/16 02:38:44;;;;;;;11.20;10.07;;;;;;;;;;4984709;28;20084;-72
2022/06/16 02:41:14;;;;;;;11.50;10.57;;;;;;;;;;4982054;28;20030;-74
2022/06/16 02:43:42;;;;;;;11.82;10.88;;;;;;;;;;4988171;28;20065;-73
2022/06/16 02:46:24;;;;;;;11.95;10.95;;;;;;;;;;4989196;28;20045;-73
2022/06/16 02:48:49;;;;;;;12.13;10.52;;;;;;;;;;4980874;28;20148;-73
2022/06/16 02:51:17;;;;;;;12.13;11.02;;;;;;;;;;4984053;28;20033;-73
2022/06/16 02:54:10;;;;;;;11.77;10.68;;;;;;;;;;4988234;28;20049;-71
2022/06/16 02:56:39;;;;;;;11.15;10.23;;;;;;;;;;4985755;28;20045;-72
2022/06/16 02:59:08;;;;;;;11.65;10.68;;;;;;;;;;4996206;28;20121;-69
2022/06/16 03:01:33;;;;;;;11.23;10.18;;;;;;;;;;4985302;28;20027;-69
2022/06/16 03:04:02;;;;;;;11.88;10.82;;;;;;;;;;4988413;28;20034;-69
2022/06/16 03:06:27;;;;;;;12.68;10.40;;;;;;;;;;4984066;28;20149;-69
2022/06/16 03:08:52;;;;;;;11.63;10.52;;;;;;;;;;4981244;28;20029;-69
2022/06/16 03:11:17;;;;;;;11.30;10.20;;;;;;;;;;4989460;28;20054;-69
2022/06/16 03:13:43;;;;;;;11.73;10.73;;;;;;;;;;4991796;28;20062;-69
2022/06/16 03:16:09;;;;;;;11.30;10.30;;;;;;;;;;4988122;28;20034;-69
2022/06/16 03:18:34;;;;;;;11.25;10.18;;;;;;;;;;4984906;28;20392;-64
2022/06/16 03:21:00;;;;;;;11.95;10.75;;;;;;;;;;4990827;28;20104;-62
2022/06/16 03:23:26;;;;;;;11.63;10.52;;;;;;;;;;4990693;28;20153;-70
2022/06/16 03:25:52;;;;;;;12.57;11.35;;;;;;;;;;4986538;28;20539;-81
2022/06/16 03:28:17;;;;;;;11.55;10.45;;;;;;;;;;4985973;28;20045;-68
2022/06/16 03:30:43;;;;;;;10.88;9.98;;;;;;;;;;4990872;28;20027;-67
2022/06/16 03:33:08;;;;;;;11.35;10.30;;;;;;;;;;4989772;28;20026;-68
2022/06/16 03:35:34;;;;;;;10.43;9.43;;;;;;;;;;4985009;28;20071;-68
2022/06/16 03:38:01;;;;;;;11.23;10.05;;;;;;;;;;4984697;28;20042;-68
2022/06/16 03:40:26;;;;;;;10.98;10.07;;;;;;;;;;4990080;28;20033;-68
2022/06/16 03:42:52;;;;;;;11.00;10.00;;;;;;;;;;4988246;28;20054;-68
2022/06/16 03:45:17;;;;;;;11.18;10.13;;;;;;;;;;4983932;28;20518;-69
2022/06/16 03:47:42;;;;;;;10.98;10.05;;;;;;;;;;4985172;28;20077;-68
2022/06/16 03:50:11;;;;;;;10.85;9.75;;;;;;;;;;4991210;28;20383;-68
2022/06/16 03:52:36;;;;;;;11.25;10.25;;;;;;;;;;4989582;28;20555;-69
2022/06/16 03:55:01;;;;;;;11.52;10.43;;;;;;;;;;4982079;28;20110;-68
2022/06/16 03:57:27;;;;;;;10.50;9.57;;;;;;;;;;4987361;28;20401;-68
2022/06/16 03:59:52;;;;;;;11.32;10.23;;;;;;;;;;4989890;28;20022;-68
2022/06/16 04:02:17;;;;;;;11.77;9.40;;;;;;;;;;4988838;28;20027;-68
2022/06/16 04:04:42;;;;;;;11.90;10.68;;;;;;;;;;4984956;28;20084;-68
2022/06/16 04:07:09;;;;;;;10.63;9.63;;;;;;;;;;4986585;28;20077;-68
2022/06/16 04:09:34;;;;;;;10.40;9.48;;;;;;;;;;4989574;28;20072;-68
2022/06/16 04:11:59;;;;;;;10.60;9.60;;;;;;;;;;4987269;28;20046;-68
2022/06/16 04:14:25;;;;;;;9.60;8.63;;;;;;;;;;4984432;28;20120;-68
2022/06/16 04:16:52;;;;;;;9.95;8.95;;;;;;;;;;4987810;28;20042;-68
2022/06/16 04:19:21;;;;;;;10.18;9.25;;;;;;;;;;4990821;28;20041;-68
2022/06/16 04:21:47;;;;;;;10.30;9.23;;;;;;;;;;4986270;28;20096;-68
2022/06/16 04:24:13;;;;;;;9.30;8.40;;;;;;;;;;4983921;28;20117;-68
2022/06/16 04:26:38;;;;;;;10.10;9.10;;;;;;;;;;4989702;28;20072;-69
2022/06/16 04:29:08;;;;;;;10.07;9.20;;;;;;;;;;4990825;28;20392;-68
2022/06/16 04:31:33;;;;;;;9.70;8.90;;;;;;;;;;4984819;28;20030;-68
2022/06/16 04:33:59;;;;;;;11.05;9.95;;;;;;;;;;4980946;28;20045;-68
2022/06/16 04:36:24;;;;;;;9.93;9.20;;;;;;;;;;4990200;28;20080;-68
2022/06/16 04:38:50;;;;;;;9.50;8.80;;;;;;;;;;4989588;28;20097;-69
2022/06/16 04:41:16;;;;;;;10.77;9.85;;;;;;;;;;4984869;28;20448;-68
2022/06/16 04:43:41;;;;;;;12.63;9.55;;;;;;;;;;4982814;28;20069;-68
2022/06/16 04:46:08;;;;;;;10.82;9.73;;;;;;;;;;4989630;28;20034;-68
2022/06/16 04:48:33;;;;;;;9.90;8.98;;;;;;;;;;4990513;28;20518;-68
2022/06/16 04:51:00;;;;;;;11.38;10.50;;;;;;;;;;4984371;28;20117;-68
2022/06/16 04:53:25;;;;;;;10.25;9.45;;;;;;;;;;4984468;28;20037;-68
2022/06/16 04:55:55;;;;;;;10.05;8.95;;;;;;;;;;4989260;28;20380;-68
2022/06/16 04:58:21;;;;;;;10.40;8.15;;;;;;;;;;4986137;28;20031;-69
2022/06/16 05:00:47;;;;;;;8.80;8.10;;;;;;;;;;4984000;28;20033;-68
2022/06/16 05:03:12;;;;;;;8.85;8.15;;;;;;;;;;5000182;28;20084;-68
2022/06/16 05:05:37;;;;;;;8.82;8.13;;;;;;;;;;4990033;28;20535;-68
2022/06/16 05:08:03;;;;;;;9.48;8.73;;;;;;;;;;4987361;28;20085;-68
2022/06/16 05:10:28;;;;;;;9.80;8.93;;;;;;;;;;4982125;28;20357;-68
2022/06/16 05:12:53;;;;;;;9.70;8.88;;;;;;;;;;4985324;28;21081;-68
2022/06/16 05:15:19;;;;;;;9.75;8.95;;;;;;;;;;4988908;28;20029;-68
2022/06/16 05:17:44;;;;;;;10.38;9.35;;;;;;;;;;4986603;28;20045;-68
2022/06/16 05:20:09;;;;;;;10.57;9.63;;;;;;;;;;4982867;28;20331;-68
2022/06/16 05:22:35;;;;;;;10.88;9.77;;;;;;;;;;4987481;28;20026;-68
2022/06/16 05:25:00;;;;;;;11.32;10.27;;;;;;;;;;4988432;28;20424;-68
2022/06/16 05:27:25;;;;;;;9.93;9.18;;;;;;;;;;4985988;28;20081;-69
2022/06/16 05:29:50;;;;;;;11.55;10.43;;;;;;;;;;4982881;28;20669;-67
2022/06/16 05:32:16;;;;;;;11.70;10.77;;;;;;;;;;4987755;28;20030;-68
2022/06/16 05:34:42;;;;;;;9.50;8.60;;;;;;;;;;4988198;28;20077;-68
2022/06/16 05:37:07;;;;;;;10.25;9.35;;;;;;;;;;4985414;28;20036;-67
2022/06/16 05:39:33;;;;;;;9.80;8.90;;;;;;;;;;4982586;28;20030;-65
2022/06/16 05:41:58;;;;;;;10.75;9.85;;;;;;;;;;4988578;28;20373;-65
2022/06/16 05:44:23;;;;;;;11.27;10.10;;;;;;;;;;4988763;28;20065;-65
2022/06/16 05:46:49;;;;;;;10.35;9.43;;;;;;;;;;4983705;28;20026;-65
2022/06/16 05:49:15;;;;;;;11.45;10.25;;;;;;;;;;4981644;28;20026;-65
2022/06/16 05:51:40;;;;;;;10.23;8.98;;;;;;;;;;4987701;28;20038;-65
2022/06/16 05:54:06;;;;;;;10.95;10.02;;;;;;;;;;4989244;28;20026;-65
2022/06/16 05:56:31;;;;;;;9.85;8.93;;;;;;;;;;4981960;28;20030;-65
2022/06/16 05:58:57;;;;;;;9.18;8.23;;;;;;;;;;4982240;28;20497;-64
2022/06/16 06:01:22;;;;;;;9.98;9.13;;;;;;;;;;4990029;28;20019;-65
2022/06/16 06:03:47;;;;;;;9.02;8.32;;;;;;;;;;4988794;28;20572;-65
2022/06/16 06:06:12;;;;;;;12.13;10.05;;;;;;;;;;4980477;28;20030;-64
2022/06/16 06:16:54;;;;;;;8.95;7.90;;;;;;;;;;4981640;28;20041;-65
2022/06/16 06:19:26;;;;;;;8.77;7.70;;;;;;;;;;4985820;28;20034;-64
2022/06/16 06:21:58;;;;;;;9.98;8.95;;;;;;;;;;4988169;28;20100;-64
2022/06/16 06:24:24;;;;;;;9.90;8.80;;;;;;;;;;4984163;28;20085;-65
2022/06/16 06:26:50;;;;;;;8.70;7.80;;;;;;;;;;4981573;28;20409;-64
2022/06/16 06:29:15;;;;;;;10.90;8.13;;;;;;;;;;4988612;28;20093;-64
2022/06/16 06:31:40;;;;;;;8.80;8.00;;;;;;;;;;4988111;28;20041;-63
2022/06/16 06:34:05;;;;;;;8.57;7.78;;;;;;;;;;4983037;28;20606;-64
2022/06/16 06:36:31;;;;;;;9.93;8.68;;;;;;;;;;4981184;28;20034;-65
2022/06/16 06:38:56;;;;;;;10.20;8.98;;;;;;;;;;4988633;28;20045;-65
2022/06/16 06:41:22;;;;;;;8.23;7.38;;;;;;;;;;4989972;28;20116;-65
2022/06/16 06:43:47;;;;;;;8.77;7.93;;;;;;;;;;4983491;28;20105;-65
2022/06/16 06:46:12;;;;;;;9.85;9.02;;;;;;;;;;4988747;28;20041;-65
2022/06/16 06:48:38;;;;;;;9.45;8.57;;;;;;;;;;4994772;28;20073;-66
2022/06/16 06:51:03;;;;;;;8.93;7.63;;;;;;;;;;4993984;28;20034;-65
2022/06/16 06:53:28;;;;;;;10.20;9.18;;;;;;;;;;4986438;28;20045;-67
2022/06/16 06:55:53;;;;;;;7.97;7.28;;;;;;;;;;4989150;28;20057;-66
2022/06/16 06:58:20;;;;;;;8.10;7.30;;;;;;;;;;4995738;28;20026;-66
2022/06/16 07:00:45;;;;;;;8.95;8.07;;;;;;;;;;4994176;28;20105;-66
2022/06/16 07:03:11;;;;;;;11.35;9.43;;;;;;;;;;4987391;28;20030;-67
2022/06/16 07:05:36;;;;;;;11.02;9.52;;;;;;;;;;4990581;28;20072;-66
2022/06/16 07:08:02;;;;;;;7.78;6.97;;;;;;;;;;4993598;28;20113;-66
2022/06/16 07:10:27;;;;;;;8.05;7.25;;;;;;;;;;4991382;28;20117;-65
2022/06/16 07:12:53;;;;;;;8.40;7.18;;;;;;;;;;4987971;28;20117;-66
2022/06/16 07:15:18;;;;;;;7.45;6.93;;;;;;;;;;4990663;28;20054;-66
2022/06/16 07:17:43;;;;;;;9.63;6.72;;;;;;;;;;4996382;28;20022;-66
2022/06/16 07:20:09;;;;;;;7.47;6.82;;;;;;;;;;4991633;28;20064;-66
2022/06/16 07:22:34;;;;;;;7.22;6.53;;;;;;;;;;4988038;28;20041;-66
2022/06/16 07:25:00;;;;;;;6.47;5.88;;;;;;;;;;4992434;28;20117;-66
2022/06/16 07:27:25;;;;;;;7.35;6.70;;;;;;;;;;4998287;28;20421;-67
2022/06/16 07:29:51;;;;;;;6.13;5.53;;;;;;;;;;4991814;28;20030;-65
2022/06/16 07:32:17;;;;;;;6.82;5.95;;;;;;;;;;4988738;28;20034;-65
2022/06/16 07:34:42;;;;;;;7.03;6.13;;;;;;;;;;4993670;28;20058;-65
2022/06/16 07:37:08;;;;;;;6.30;5.80;;;;;;;;;;4996042;28;20592;-65
2022/06/16 07:39:33;;;;;;;6.50;6.00;;;;;;;;;;4990626;28;20081;-65
2022/06/16 07:41:58;;;;;;;6.47;5.38;;;;;;;;;;4987618;28;20018;-66
2022/06/16 07:44:24;;;;;;;8.80;6.53;;;;;;;;;;4993334;28;20084;-65
2022/06/16 07:46:49;;;;;;;6.47;5.80;;;;;;;;;;4996539;28;20126;-66
2022/06/16 07:49:16;;;;;;;7.43;6.75;;;;;;;;;;4993481;28;21132;-66
2022/06/16 07:51:42;;;;;;;8.45;5.97;;;;;;;;;;4993393;28;20026;-68
2022/06/16 07:54:07;;;;;;;8.65;6.45;;;;;;;;;;4999991;28;20037;-66
2022/06/16 07:56:32;;;;;;;5.32;4.93;;;;;;;;;;4996482;28;20109;-66
2022/06/16 07:58:58;;;;;;;7.57;5.65;;;;;;;;;;4989439;28;20057;-66
2022/06/16 08:01:23;;;;;;;6.65;6.00;;;;;;;;;;4991807;28;20218;-66
2022/06/16 08:03:48;;;;;;;6.55;5.93;;;;;;;;;;4991586;28;20502;-66
2022/06/16 08:06:16;;;;;;;6.72;6.13;;;;;;;;;;4987525;28;20037;-66
2022/06/16 08:08:43;;;;;;;6.65;6.15;;;;;;;;;;4990291;28;20113;-66
2022/06/16 08:12:03;;;;;;;7.22;6.50;;;;;;;;;;4989518;28;20133;-66
2022/06/16 08:13:54;;;;;;;11.10;6.53;;;;;;;;;;4983217;28;20038;-66
2022/06/16 08:16:19;;;;;;;6.82;6.32;;;;;;;;;;4986990;28;20038;-66
2022/06/16 08:18:45;;;;;;;7.25;6.65;;;;;;;;;;4991649;28;20393;-66
2022/06/16 08:21:10;;;;;;;6.55;5.95;;;;;;;;;;4988548;28;20072;-65
2022/06/16 08:23:35;;;;;;;6.68;6.22;;;;;;;;;;4982892;28;20398;-66
2022/06/16 08:26:01;;;;;;;7.05;6.35;;;;;;;;;;4988446;28;20027;-66
2022/06/16 08:28:26;;;;;;;6.93;6.20;;;;;;;;;;4990411;28;20456;-66
2022/06/16 08:30:51;;;;;;;6.93;6.30;;;;;;;;;;4986130;28;20026;-66
2022/06/16 08:33:18;;;;;;;6.63;6.13;;;;;;;;;;4983563;28;20030;-66
2022/06/16 08:35:45;;;;;;;6.40;5.68;;;;;;;;;;4989546;28;20042;-65
2022/06/16 08:38:11;;;;;;;6.88;6.15;;;;;;;;;;4990461;28;20084;-66
2022/06/16 08:40:42;;;;;;;8.48;6.65;;;;;;;;;;4985381;28;20027;-66
2022/06/16 08:43:27;;;;;;;8.07;7.38;;;;;;;;;;4983019;28;20058;-65
2022/06/16 08:45:58;;;;;;;7.18;6.57;;;;;;;;;;4990793;28;20031;-65
2022/06/16 08:48:26;;;;;;;8.05;7.47;;;;;;;;;;4989495;28;20095;-66
2022/06/16 08:51:02;;;;;;;6.50;5.85;;;;;;;;;;4984169;28;20033;-65
2022/06/16 08:53:37;;;;;;;6.80;6.20;;;;;;;;;;4985824;28;20038;-65
2022/06/16 08:56:04;;;;;;;7.95;7.30;;;;;;;;;;4988131;28;20026;-67
2022/06/16 08:58:33;;;;;;;14.43;7.32;;;;;;;;;;4987443;28;20034;-65
2022/06/16 09:01:00;;;;;;;7.20;6.38;;;;;;;;;;4983257;28;20038;-65
2022/06/16 09:03:34;;;;;;;11.65;6.43;;;;;;;;;;4987446;28;20034;-66
2022/06/16 09:06:05;;;;;;;7.30;6.70;;;;;;;;;;4990838;28;20037;-67
2022/06/16 09:08:45;;;;;;;7.85;6.53;;;;;;;;;;4984182;28;20037;-68
2022/06/16 09:11:17;;;;;;;7.93;6.93;;;;;;;;;;4982606;28;20445;-64
2022/06/16 09:14:11;;;;;;;6.93;6.32;;;;;;;;;;4988906;28;20069;-65
2022/06/16 09:16:43;;;;;;;7.43;6.77;;;;;;;;;;4908975;29;20036;-66
2022/06/16 09:19:24;;;;;;;6.47;5.97;;;;;;;;;;4902134;29;20028;-66
2022/06/16 09:22:08;;;;;;;7.05;6.55;;;;;;;;;;4904213;29;20250;-66
2022/06/16 09:24:43;;;;;;;7.40;6.50;;;;;;;;;;4909116;29;20040;-68
2022/06/16 09:27:18;;;;;;;7.38;6.78;;;;;;;;;;4905185;29;20127;-68
2022/06/16 09:29:43;;;;;;;;;;;;;;;;;;4902211;29;20040;-68
2022/06/16 09:32:08;;;;;;;;;;;;;;;;;;4907806;29;19926;-70
2022/06/16 09:34:52;;;;;;;7.40;6.70;;;;;;;;;;4908733;29;19922;-68
2022/06/16 09:37:23;;;;;;;6.90;6.40;;;;;;;;;;4902562;29;20068;-68
2022/06/16 09:39:55;;;;;;;6.70;6.10;;;;;;;;;;4902298;29;20040;-68
2022/06/16 09:42:32;;;;;;;6.88;5.93;;;;;;;;;;4908328;29;20088;-68
2022/06/16 09:45:06;;;;;;;6.05;5.60;;;;;;;;;;4907608;29;20034;-68
2022/06/16 09:47:37;;;;;;;6.50;5.90;;;;;;;;;;4901475;29;20036;-68
2022/06/16 09:50:03;;;;;;;8.68;5.85;;;;;;;;;;4904459;29;20040;-69
2022/06/16 09:52:33;;;;;;;12.37;7.27;;;;;;;;;;4928532;28;20551;-71
2022/06/16 09:55:01;;;;;;;8.60;7.30;;;;;;;;;;4986176;28;20265;-68
2022/06/16 09:57:45;;;;;;;6.57;5.97;;;;;;;;;;4983006;28;20026;-71
2022/06/16 10:00:17;;;;;;;6.50;6.10;;;;;;;;;;4987328;28;20068;-69
2022/06/16 10:02:50;;;;;;;6.25;5.80;;;;;;;;;;4990532;28;20058;-70
2022/06/16 10:05:19;;;;;;;6.65;6.00;;;;;;;;;;4983572;28;20100;-69
2022/06/16 10:07:54;;;;;;;7.00;6.55;;;;;;;;;;4982459;28;20037;-70
2022/06/16 10:10:19;;;;;;;6.53;6.05;;;;;;;;;;4989421;28;20117;-68
2022/06/16 10:13:03;;;;;;;5.85;5.45;;;;;;;;;;4989030;28;20459;-69
2022/06/16 10:15:37;;;;;;;6.25;5.72;;;;;;;;;;4980966;28;20459;-67
2022/06/16 10:18:03;;;;;;;6.53;6.03;;;;;;;;;;4986505;28;20026;-70
2022/06/16 10:20:29;;;;;;;7.25;6.60;;;;;;;;;;4988347;28;20052;-68
2022/06/16 10:23:15;;;;;;;6.43;5.93;;;;;;;;;;4986736;28;20050;-67
2022/06/16 10:25:44;;;;;;;6.65;6.05;;;;;;;;;;4986617;28;20567;-67
2022/06/16 10:28:21;;;;;;;11.05;6.90;;;;;;;;;;4987019;28;20029;-67
2022/06/16 10:30:47;;;;;;;9.65;5.90;;;;;;;;;;4988536;28;20051;-67
2022/06/16 10:33:15;;;;;;;6.53;5.93;;;;;;;;;;4984157;28;20030;-67
2022/06/16 10:36:15;;;;;;;6.20;5.32;;;;;;;;;;4981975;28;20042;-70
2022/06/16 10:38:56;;;;;;;6.40;5.57;;;;;;;;;;4907895;29;20215;-70
2022/06/16 10:41:29;;;;;;;7.00;6.43;;;;;;;;;;4890954;29;20285;-69
2022/06/16 10:43:55;;;;;;;7.30;6.60;;;;;;;;;;4900719;29;20067;-70
2022/06/16 10:46:22;;;;;;;7.32;6.72;;;;;;;;;;4904188;29;20036;-67
2022/06/16 10:48:49;;;;;;;6.88;6.38;;;;;;;;;;4907655;29;20028;-67
2022/06/16 10:51:16;;;;;;;6.38;5.78;;;;;;;;;;4906133;29;20092;-68
2022/06/16 10:54:00;;;;;;;6.20;5.70;;;;;;;;;;4900739;29;20040;-68
2022/06/16 10:56:27;;;;;;;6.68;6.13;;;;;;;;;;4906593;29;20120;-68
2022/06/16 10:59:03;;;;;;;9.18;6.15;;;;;;;;;;4907793;29;20075;-69
2022/06/16 11:01:42;;;;;;;8.73;6.72;;;;;;;;;;4903506;29;20833;-69
2022/06/16 11:04:12;;;;;;;7.93;5.82;;;;;;;;;;4901654;29;20044;-68
2022/06/16 11:06:38;;;;;;;7.85;6.63;;;;;;;;;;4908676;29;20056;-69
2022/06/16 11:09:04;;;;;;;6.93;6.43;;;;;;;;;;4904041;29;20032;-68
2022/06/16 11:11:33;;;;;;;6.68;5.55;;;;;;;;;;4901285;28;20080;-68
2022/06/16 11:14:00;;;;;;;5.63;5.22;;;;;;;;;;4984260;28;20030;-69
2022/06/16 11:16:28;;;;;;;6.20;5.65;;;;;;;;;;4988563;28;20026;-68
2022/06/16 11:18:55;;;;;;;6.53;6.05;;;;;;;;;;4983715;28;20050;-72
2022/06/16 11:21:21;;;;;;;7.30;5.82;;;;;;;;;;4981817;28;20033;-69
2022/06/16 11:23:52;;;;;;;6.97;6.32;;;;;;;;;;4982979;28;20033;-71
2022/06/16 11:26:19;;;;;;;7.22;6.50;;;;;;;;;;4987152;28;20034;-71
2022/06/16 11:28:46;;;;;;;5.93;5.53;;;;;;;;;;4985149;28;20570;-73
2022/06/16 11:31:38;;;;;;;6.18;5.72;;;;;;;;;;4981550;28;20026;-70
2022/06/16 11:34:14;;;;;;;6.05;5.55;;;;;;;;;;4985864;28;20109;-68
2022/06/16 11:36:51;;;;;;;6.43;5.85;;;;;;;;;;4991722;28;20097;-68
2022/06/16 11:39:22;;;;;;;6.88;6.00;;;;;;;;;;4986808;28;20023;-68
2022/06/16 11:41:49;;;;;;;6.50;6.03;;;;;;;;;;4984519;28;20035;-69
2022/06/16 11:44:30;;;;;;;6.13;5.72;;;;;;;;;;4990776;28;20061;-68
2022/06/16 11:46:55;;;;;;;6.65;6.15;;;;;;;;;;4992014;28;20026;-69
2022/06/16 11:49:23;;;;;;;7.07;6.37;;;;;;;;;;4984802;28;20053;-69
2022/06/16 11:51:54;;;;;;;6.40;5.80;;;;;;;;;;4985774;28;20739;-68
2022/06/16 11:54:29;;;;;;;5.90;5.40;;;;;;;;;;4990868;28;20060;-69
2022/06/16 11:56:54;;;;;;;6.15;5.65;;;;;;;;;;4989204;28;20034;-69
2022/06/16 11:59:43;;;;;;;7.97;5.95;;;;;;;;;;4984403;28;20026;-69
2022/06/16 12:02:26;;;;;;;6.63;5.95;;;;;;;;;;4950863;28;20041;-69
2022/06/16 12:05:02;;;;;;;6.17;5.70;;;;;;;;;;4991389;28;20046;-68
2022/06/16 12:07:52;;;;;;;6.47;5.80;;;;;;;;;;4984697;28;20344;-69
2022/06/16 12:10:23;;;;;;;7.13;6.53;;;;;;;;;;4985775;28;20033;-69
2022/06/16 12:12:51;;;;;;;7.28;5.78;;;;;;;;;;4990507;28;20042;-69
2022/06/16 12:15:45;;;;;;;7.38;6.43;;;;;;;;;;4989257;28;20045;-69
2022/06/16 12:18:16;;;;;;;6.20;5.63;;;;;;;;;;4975359;28;20046;-69
2022/06/16 12:21:12;;;;;;;6.45;5.93;;;;;;;;;;4988098;28;20097;-69
2022/06/16 12:23:44;;;;;;;5.80;5.30;;;;;;;;;;4969832;28;20038;-69
2022/06/16 12:26:19;;;;;;;6.32;5.93;;;;;;;;;;4985379;28;20030;-68
2022/06/16 12:28:44;;;;;;;6.25;5.82;;;;;;;;;;4984225;28;20080;-68
2022/06/16 12:31:19;;;;;;;6.88;6.30;;;;;;;;;;4991423;28;20030;-70
2022/06/16 12:33:57;;;;;;;6.25;5.68;;;;;;;;;;4991011;28;20061;-69
2022/06/16 12:36:27;;;;;;;6.18;5.68;;;;;;;;;;4984368;28;20042;-68
2022/06/16 12:39:01;;;;;;;6.35;5.78;;;;;;;;;;4984399;28;20033;-68
2022/06/16 12:41:40;;;;;;;6.20;5.78;;;;;;;;;;4990277;28;20030;-68
2022/06/16 12:44:23;;;;;;;6.32;5.82;;;;;;;;;;4986097;28;20511;-68
2022/06/16 12:46:55;;;;;;;6.80;6.20;;;;;;;;;;4984514;28;20054;-68
2022/06/16 12:49:25;;;;;;;5.30;5.00;;;;;;;;;;4988900;28;20041;-68
2022/06/16 12:52:10;;;;;;;7.45;6.05;;;;;;;;;;4990924;28;20499;-68
2022/06/16 12:54:40;;;;;;;6.30;5.80;;;;;;;;;;4983149;28;20471;-68
2022/06/16 12:57:08;;;;;;;7.05;6.45;;;;;;;;;;4985763;28;20465;-68
2022/06/16 12:59:38;;;;;;;7.03;6.38;;;;;;;;;;4989419;28;20030;-68
2022/06/16 13:02:05;;;;;;;7.55;6.72;;;;;;;;;;4990016;28;20177;-68
2022/06/16 13:04:32;;;;;;;6.00;5.60;;;;;;;;;;4982514;28;20042;-68
2022/06/16 13:06:59;;;;;;;7.70;6.95;;;;;;;;;;4987378;28;20088;-68
2022/06/16 13:09:25;;;;;;;7.60;5.65;;;;;;;;;;4990692;28;20092;-68
2022/06/16 13:11:53;;;;;;;6.60;6.05;;;;;;;;;;4988901;28;20994;-68
2022/06/16 13:14:21;;;;;;;7.65;7.07;;;;;;;;;;4983460;28;20501;-68
2022/06/16 13:16:50;;;;;;;7.60;6.90;;;;;;;;;;4986724;28;20129;-68
2022/06/16 13:19:15;;;;;;;6.95;6.30;;;;;;;;;;4990415;28;20030;-68
2022/06/16 13:21:43;;;;;;;6.77;6.20;;;;;;;;;;4986410;28;20072;-69
2022/06/16 13:24:27;;;;;;;7.93;6.03;;;;;;;;;;4982420;28;20802;-68
2022/06/16 13:27:06;;;;;;;6.18;5.78;;;;;;;;;;4988216;28;20560;-67
2022/06/16 13:29:41;;;;;;;7.13;6.63;;;;;;;;;;4989490;28;20026;-68
2022/06/16 13:32:06;;;;;;;;;;;;;;;;;;4982689;28;20057;-67
2022/06/16 13:34:51;;;;;;;7.73;7.17;;;;;;;;;;4983709;28;20372;-68
2022/06/16 13:37:28;;;;;;;7.38;6.78;;;;;;;;;;4988989;28;20274;-69
2022/06/16 13:39:58;;;;;;;7.10;6.60;;;;;;;;;;4988094;28;20042;-69
2022/06/16 13:42:43;;;;;;;8.90;5.93;;;;;;;;;;4981727;28;20030;-68
2022/06/16 13:45:11;;;;;;;7.80;6.30;;;;;;;;;;4986198;28;20115;-68
2022/06/16 13:47:41;;;;;;;7.35;6.72;;;;;;;;;;4988901;28;20054;-69
2022/06/16 13:50:10;;;;;;;8.30;7.43;;;;;;;;;;5000901;28;20103;-68
2022/06/16 13:52:37;;;;;;;9.20;7.35;;;;;;;;;;4982368;28;20120;-69
2022/06/16 13:55:11;;;;;;;7.88;7.18;;;;;;;;;;4986826;28;20037;-67
2022/06/16 13:57:37;;;;;;;6.75;6.15;;;;;;;;;;4991461;28;20034;-67
2022/06/16 14:00:10;;;;;;;7.05;6.35;;;;;;;;;;4985219;28;20026;-68
2022/06/16 14:02:54;;;;;;;7.63;6.97;;;;;;;;;;4983439;28;20026;-68
2022/06/16 14:05:24;;;;;;;6.70;6.20;;;;;;;;;;4989543;28;20145;-68
2022/06/16 14:07:49;;;;;;;6.75;6.15;;;;;;;;;;4990425;28;20472;-67
2022/06/16 14:10:22;;;;;;;8.90;8.00;;;;;;;;;;4984547;28;20516;-66
2022/06/16 14:12:49;;;;;;;7.68;6.85;;;;;;;;;;4986214;28;20045;-67
2022/06/16 14:15:14;;;;;;;6.88;6.22;;;;;;;;;;4990626;28;20038;-69
2022/06/16 14:18:00;;;;;;;7.25;6.25;;;;;;;;;;4989174;28;20076;-68
2022/06/16 14:20:26;;;;;;;8.40;5.57;;;;;;;;;;4982781;28;20030;-68
2022/06/16 14:22:55;;;;;;;6.10;5.70;;;;;;;;;;4987587;28;20030;-67
2022/06/16 14:25:23;;;;;;;9.35;6.63;;;;;;;;;;4989711;28;20023;-67
2022/06/16 14:27:54;;;;;;;10.45;6.63;;;;;;;;;;4985593;28;20031;-67
2022/06/16 14:30:24;;;;;;;6.75;6.03;;;;;;;;;;4982375;28;20177;-67
2022/06/16 14:32:55;;;;;;;7.65;6.95;;;;;;;;;;4989578;28;20511;-68
2022/06/16 14:35:26;;;;;;;7.65;6.97;;;;;;;;;;4991004;28;20108;-67
2022/06/16 14:38:05;;;;;;;6.70;6.03;;;;;;;;;;4983231;28;20033;-67
2022/06/16 14:40:34;;;;;;;7.10;6.47;;;;;;;;;;4983517;28;20465;-66
2022/06/16 14:43:00;;;;;;;9.02;6.13;;;;;;;;;;4989959;28;20085;-69
2022/06/16 14:45:32;;;;;;;9.77;6.75;;;;;;;;;;4988870;28;20729;-70
2022/06/16 14:48:04;;;;;;;7.22;6.20;;;;;;;;;;4982678;28;20030;-66
2022/06/16 14:50:42;;;;;;;10.15;6.95;;;;;;;;;;4985004;28;20153;-66
2022/06/16 14:53:10;;;;;;;7.50;6.20;;;;;;;;;;4989613;28;20408;-67
2022/06/16 14:55:52;;;;;;;6.47;5.88;;;;;;;;;;4987406;28;20089;-68
2022/06/16 14:58:18;;;;;;;9.18;7.28;;;;;;;;;;4981318;28;20022;-67
2022/06/16 15:00:47;;;;;;;6.95;6.35;;;;;;;;;;4988527;28;20469;-66
2022/06/16 15:03:15;;;;;;;7.10;6.38;;;;;;;;;;4989111;28;20033;-67